sensor_id;sensor_type;location;lat;lon;timestamp;P1;durP1;ratioP1;P2;durP2;ratioP2
74180;SDS011;62544;50.826;14.354;2023-02-15T00:00:33;38.36;;;26.18;;
74180;SDS011;62544;50.826;14.354;2023-02-15T00:04:49;38.36;;;26.18;;
74180;SDS011;62544;50.826;14.354;2023-02-15T00:09:05;38.36;;;26.18;;
74180;SDS011;62544;50.826;14.354;2023-02-15T00:13:21;42.13;;;27.65;;
74180;SDS011;62544;50.826;14.354;2023-02-15T00:17:37;42.13;;;27.65;;
74180;SDS011;62544;50.826;14.354;2023-02-15T00:21:53;43.20;;;27.21;;
74180;SDS011;62544;50.826;14.354;2023-02-15T00:26:10;43.20;;;27.21;;
74180;SDS011;62544;50.826;14.354;2023-02-15T00:30:25;43.20;;;27.21;;
74180;SDS011;62544;50.826;14.354;2023-02-15T00:34:41;36.58;;;23.84;;
74180;SDS011;62544;50.826;14.354;2023-02-15T00:38:57;36.58;;;23.84;;
74180;SDS011;62544;50.826;14.354;2023-02-15T00:43:13;41.96;;;26.67;;
74180;SDS011;62544;50.826;14.354;2023-02-15T00:47:29;41.96;;;26.67;;
74180;SDS011;62544;50.826;14.354;2023-02-15T00:51:45;40.94;;;26.59;;
74180;SDS011;62544;50.826;14.354;2023-02-15T00:56:01;40.94;;;26.59;;
74180;SDS011;62544;50.826;14.354;2023-02-15T01:00:17;40.94;;;26.59;;
74180;SDS011;62544;50.826;14.354;2023-02-15T01:04:33;40.50;;;26.32;;
74180;SDS011;62544;50.826;14.354;2023-02-15T01:08:49;40.50;;;26.32;;
74180;SDS011;62544;50.826;14.354;2023-02-15T01:13:05;36.40;;;24.05;;
74180;SDS011;62544;50.826;14.354;2023-02-15T01:17:21;36.40;;;24.05;;
74180;SDS011;62544;50.826;14.354;2023-02-15T01:21:37;37.93;;;24.08;;
74180;SDS011;62544;50.826;14.354;2023-02-15T01:25:53;37.93;;;24.08;;
74180;SDS011;62544;50.826;14.354;2023-02-15T01:30:09;37.93;;;24.08;;
74180;SDS011;62544;50.826;14.354;2023-02-15T01:34:25;35.79;;;23.17;;
74180;SDS011;62544;50.826;14.354;2023-02-15T01:38:41;35.79;;;23.17;;
74180;SDS011;62544;50.826;14.354;2023-02-15T01:42:57;35.11;;;23.47;;
74180;SDS011;62544;50.826;14.354;2023-02-15T01:47:18;35.11;;;23.47;;
74180;SDS011;62544;50.826;14.354;2023-02-15T01:51:29;39.90;;;24.91;;
74180;SDS011;62544;50.826;14.354;2023-02-15T01:55:46;39.90;;;24.91;;
74180;SDS011;62544;50.826;14.354;2023-02-15T02:00:02;39.90;;;24.91;;
74180;SDS011;62544;50.826;14.354;2023-02-15T02:04:19;42.41;;;26.00;;
74180;SDS011;62544;50.826;14.354;2023-02-15T02:08:33;42.41;;;26.00;;
74180;SDS011;62544;50.826;14.354;2023-02-15T02:12:50;40.37;;;25.76;;
74180;SDS011;62544;50.826;14.354;2023-02-15T02:29:59;40.37;;;25.76;;
74180;SDS011;62544;50.826;14.354;2023-02-15T02:34:14;38.91;;;24.48;;
74180;SDS011;62544;50.826;14.354;2023-02-15T02:38:33;38.91;;;24.48;;
74180;SDS011;62544;50.826;14.354;2023-02-15T02:42:42;43.44;;;26.01;;
74180;SDS011;62544;50.826;14.354;2023-02-15T02:51:13;43.44;;;26.01;;
74180;SDS011;62544;50.826;14.354;2023-02-15T02:55:30;43.44;;;26.01;;
74180;SDS011;62544;50.826;14.354;2023-02-15T02:59:45;43.44;;;26.01;;
74180;SDS011;62544;50.826;14.354;2023-02-15T03:04:05;41.13;;;25.28;;
74180;SDS011;62544;50.826;14.354;2023-02-15T03:08:17;41.13;;;25.28;;
74180;SDS011;62544;50.826;14.354;2023-02-15T03:12:34;41.13;;;25.28;;
74180;SDS011;62544;50.826;14.354;2023-02-15T03:16:49;41.13;;;25.28;;
74180;SDS011;62544;50.826;14.354;2023-02-15T03:21:05;45.02;;;26.83;;
74180;SDS011;62544;50.826;14.354;2023-02-15T03:25:22;45.02;;;26.83;;
74180;SDS011;62544;50.826;14.354;2023-02-15T03:29:37;45.02;;;26.83;;
74180;SDS011;62544;50.826;14.354;2023-02-15T03:33:54;43.80;;;26.02;;
74180;SDS011;62544;50.826;14.354;2023-02-15T03:38:09;43.80;;;26.02;;
74180;SDS011;62544;50.826;14.354;2023-02-15T03:42:26;42.72;;;26.08;;
74180;SDS011;62544;50.826;14.354;2023-02-15T03:46:45;42.72;;;26.08;;
74180;SDS011;62544;50.826;14.354;2023-02-15T03:50:58;45.74;;;27.20;;
74180;SDS011;62544;50.826;14.354;2023-02-15T03:55:13;45.74;;;27.20;;
74180;SDS011;62544;50.826;14.354;2023-02-15T03:59:29;45.74;;;27.20;;
74180;SDS011;62544;50.826;14.354;2023-02-15T04:03:45;42.47;;;24.91;;
74180;SDS011;62544;50.826;14.354;2023-02-15T04:08:01;42.47;;;24.91;;
74180;SDS011;62544;50.826;14.354;2023-02-15T04:12:17;41.61;;;25.59;;
74180;SDS011;62544;50.826;14.354;2023-02-15T04:16:33;41.61;;;25.59;;
74180;SDS011;62544;50.826;14.354;2023-02-15T04:20:49;42.79;;;26.27;;
74180;SDS011;62544;50.826;14.354;2023-02-15T04:25:05;42.79;;;26.27;;
74180;SDS011;62544;50.826;14.354;2023-02-15T04:29:21;42.79;;;26.27;;
74180;SDS011;62544;50.826;14.354;2023-02-15T04:33:37;44.35;;;26.45;;
74180;SDS011;62544;50.826;14.354;2023-02-15T04:37:53;44.35;;;26.45;;
74180;SDS011;62544;50.826;14.354;2023-02-15T04:42:09;39.82;;;24.24;;
74180;SDS011;62544;50.826;14.354;2023-02-15T04:46:25;39.82;;;24.24;;
74180;SDS011;62544;50.826;14.354;2023-02-15T04:50:41;42.89;;;24.60;;
74180;SDS011;62544;50.826;14.354;2023-02-15T04:54:57;42.89;;;24.60;;
74180;SDS011;62544;50.826;14.354;2023-02-15T04:59:13;42.89;;;24.60;;
74180;SDS011;62544;50.826;14.354;2023-02-15T05:03:29;41.45;;;23.83;;
74180;SDS011;62544;50.826;14.354;2023-02-15T05:07:45;41.45;;;23.83;;
74180;SDS011;62544;50.826;14.354;2023-02-15T05:12:01;42.97;;;25.34;;
74180;SDS011;62544;50.826;14.354;2023-02-15T05:16:17;42.97;;;25.34;;
74180;SDS011;62544;50.826;14.354;2023-02-15T05:20:33;42.07;;;25.02;;
74180;SDS011;62544;50.826;14.354;2023-02-15T05:24:49;42.07;;;25.02;;
74180;SDS011;62544;50.826;14.354;2023-02-15T05:29:05;42.07;;;25.02;;
74180;SDS011;62544;50.826;14.354;2023-02-15T05:33:21;41.42;;;24.75;;
74180;SDS011;62544;50.826;14.354;2023-02-15T05:37:37;41.42;;;24.75;;
74180;SDS011;62544;50.826;14.354;2023-02-15T05:41:53;38.69;;;23.41;;
74180;SDS011;62544;50.826;14.354;2023-02-15T05:46:09;38.69;;;23.41;;
74180;SDS011;62544;50.826;14.354;2023-02-15T05:50:25;38.69;;;23.41;;
74180;SDS011;62544;50.826;14.354;2023-02-15T05:54:41;39.76;;;22.97;;
74180;SDS011;62544;50.826;14.354;2023-02-15T05:58:57;39.76;;;22.97;;
74180;SDS011;62544;50.826;14.354;2023-02-15T06:03:13;38.21;;;22.41;;
74180;SDS011;62544;50.826;14.354;2023-02-15T06:07:29;38.21;;;22.41;;
74180;SDS011;62544;50.826;14.354;2023-02-15T06:11:45;38.68;;;22.72;;
74180;SDS011;62544;50.826;14.354;2023-02-15T06:16:01;38.68;;;22.72;;
74180;SDS011;62544;50.826;14.354;2023-02-15T06:20:17;38.68;;;22.72;;
74180;SDS011;62544;50.826;14.354;2023-02-15T06:24:32;40.07;;;23.41;;
74180;SDS011;62544;50.826;14.354;2023-02-15T06:28:49;40.07;;;23.41;;
74180;SDS011;62544;50.826;14.354;2023-02-15T06:33:05;40.86;;;25.25;;
74180;SDS011;62544;50.826;14.354;2023-02-15T06:37:21;40.86;;;25.25;;
74180;SDS011;62544;50.826;14.354;2023-02-15T06:41:37;39.50;;;24.05;;
74180;SDS011;62544;50.826;14.354;2023-02-15T06:45:52;39.50;;;24.05;;
74180;SDS011;62544;50.826;14.354;2023-02-15T06:50:09;39.50;;;24.05;;
74180;SDS011;62544;50.826;14.354;2023-02-15T06:54:25;38.72;;;23.18;;
74180;SDS011;62544;50.826;14.354;2023-02-15T06:58:41;38.72;;;23.18;;
74180;SDS011;62544;50.826;14.354;2023-02-15T07:02:57;41.33;;;24.45;;
74180;SDS011;62544;50.826;14.354;2023-02-15T07:07:13;41.33;;;24.45;;
74180;SDS011;62544;50.826;14.354;2023-02-15T07:11:28;34.76;;;21.52;;
74180;SDS011;62544;50.826;14.354;2023-02-15T07:15:45;34.76;;;21.52;;
74180;SDS011;62544;50.826;14.354;2023-02-15T07:20:01;34.76;;;21.52;;
74180;SDS011;62544;50.826;14.354;2023-02-15T07:24:16;34.76;;;21.52;;
74180;SDS011;62544;50.826;14.354;2023-02-15T07:28:33;34.76;;;21.52;;
74180;SDS011;62544;50.826;14.354;2023-02-15T07:32:49;37.44;;;22.83;;
74180;SDS011;62544;50.826;14.354;2023-02-15T07:37:04;37.44;;;22.83;;
74180;SDS011;62544;50.826;14.354;2023-02-15T07:41:20;37.81;;;23.04;;
74180;SDS011;62544;50.826;14.354;2023-02-15T07:45:36;37.81;;;23.04;;
74180;SDS011;62544;50.826;14.354;2023-02-15T07:49:52;37.81;;;23.04;;
74180;SDS011;62544;50.826;14.354;2023-02-15T07:54:08;38.40;;;23.55;;
74180;SDS011;62544;50.826;14.354;2023-02-15T07:58:24;38.40;;;23.55;;
74180;SDS011;62544;50.826;14.354;2023-02-15T08:02:40;38.04;;;22.85;;
74180;SDS011;62544;50.826;14.354;2023-02-15T08:06:56;38.04;;;22.85;;
74180;SDS011;62544;50.826;14.354;2023-02-15T08:11:22;40.31;;;23.15;;
74180;SDS011;62544;50.826;14.354;2023-02-15T08:15:28;40.31;;;23.15;;
74180;SDS011;62544;50.826;14.354;2023-02-15T08:19:44;40.31;;;23.15;;
74180;SDS011;62544;50.826;14.354;2023-02-15T08:24:00;37.48;;;22.26;;
74180;SDS011;62544;50.826;14.354;2023-02-15T08:28:16;37.48;;;22.26;;
74180;SDS011;62544;50.826;14.354;2023-02-15T08:32:32;35.23;;;22.15;;
74180;SDS011;62544;50.826;14.354;2023-02-15T08:36:48;35.23;;;22.15;;
74180;SDS011;62544;50.826;14.354;2023-02-15T08:41:11;33.13;;;19.76;;
74180;SDS011;62544;50.826;14.354;2023-02-15T08:45:21;33.13;;;19.76;;
74180;SDS011;62544;50.826;14.354;2023-02-15T08:49:37;33.13;;;19.76;;
74180;SDS011;62544;50.826;14.354;2023-02-15T08:53:53;34.85;;;21.01;;
74180;SDS011;62544;50.826;14.354;2023-02-15T08:58:09;34.85;;;21.01;;
74180;SDS011;62544;50.826;14.354;2023-02-15T09:02:25;34.11;;;20.83;;
74180;SDS011;62544;50.826;14.354;2023-02-15T09:06:41;34.11;;;20.83;;
74180;SDS011;62544;50.826;14.354;2023-02-15T09:11:07;40.67;;;23.87;;
74180;SDS011;62544;50.826;14.354;2023-02-15T09:15:13;40.67;;;23.87;;
74180;SDS011;62544;50.826;14.354;2023-02-15T09:19:29;40.67;;;23.87;;
74180;SDS011;62544;50.826;14.354;2023-02-15T09:23:46;40.74;;;22.52;;
74180;SDS011;62544;50.826;14.354;2023-02-15T09:28:01;40.74;;;22.52;;
74180;SDS011;62544;50.826;14.354;2023-02-15T09:32:17;38.93;;;22.83;;
74180;SDS011;62544;50.826;14.354;2023-02-15T09:36:34;38.93;;;22.83;;
74180;SDS011;62544;50.826;14.354;2023-02-15T09:40:51;37.77;;;22.35;;
74180;SDS011;62544;50.826;14.354;2023-02-15T09:49:28;37.77;;;22.35;;
74180;SDS011;62544;50.826;14.354;2023-02-15T09:57:57;37.77;;;22.35;;
74180;SDS011;62544;50.826;14.354;2023-02-15T10:02:27;39.76;;;23.02;;
74180;SDS011;62544;50.826;14.354;2023-02-15T10:10:48;39.38;;;22.68;;
74180;SDS011;62544;50.826;14.354;2023-02-15T10:19:38;39.38;;;22.68;;
74180;SDS011;62544;50.826;14.354;2023-02-15T10:23:38;42.82;;;25.01;;
74180;SDS011;62544;50.826;14.354;2023-02-15T10:27:46;42.82;;;25.01;;
74180;SDS011;62544;50.826;14.354;2023-02-15T10:36:24;44.23;;;24.84;;
74180;SDS011;62544;50.826;14.354;2023-02-15T10:49:18;44.23;;;24.84;;
74180;SDS011;62544;50.826;14.354;2023-02-15T10:53:26;45.58;;;25.73;;
74180;SDS011;62544;50.826;14.354;2023-02-15T11:01:59;45.58;;;25.73;;
74180;SDS011;62544;50.826;14.354;2023-02-15T11:06:11;45.58;;;25.73;;
74180;SDS011;62544;50.826;14.354;2023-02-15T11:10:35;45.58;;;25.73;;
74180;SDS011;62544;50.826;14.354;2023-02-15T11:14:46;51.18;;;28.04;;
74180;SDS011;62544;50.826;14.354;2023-02-15T11:19:05;51.18;;;28.04;;
74180;SDS011;62544;50.826;14.354;2023-02-15T11:23:14;51.18;;;28.04;;
74180;SDS011;62544;50.826;14.354;2023-02-15T11:27:30;51.18;;;28.04;;
74180;SDS011;62544;50.826;14.354;2023-02-15T11:31:46;53.86;;;29.51;;
74180;SDS011;62544;50.826;14.354;2023-02-15T11:36:03;53.86;;;29.51;;
74180;SDS011;62544;50.826;14.354;2023-02-15T11:44:34;53.86;;;29.51;;
74180;SDS011;62544;50.826;14.354;2023-02-15T11:48:49;53.86;;;29.51;;
74180;SDS011;62544;50.826;14.354;2023-02-15T11:53:12;54.36;;;28.94;;
74180;SDS011;62544;50.826;14.354;2023-02-15T11:57:37;54.36;;;28.94;;
74180;SDS011;62544;50.826;14.354;2023-02-15T12:01:41;54.36;;;28.94;;
74180;SDS011;62544;50.826;14.354;2023-02-15T12:05:56;54.36;;;28.94;;
74180;SDS011;62544;50.826;14.354;2023-02-15T12:14:25;53.61;;;28.54;;
74180;SDS011;62544;50.826;14.354;2023-02-15T12:18:42;53.61;;;28.54;;
74180;SDS011;62544;50.826;14.354;2023-02-15T12:23:04;53.03;;;28.20;;
74180;SDS011;62544;50.826;14.354;2023-02-15T12:31:47;53.03;;;28.20;;
74180;SDS011;62544;50.826;14.354;2023-02-15T12:35:45;53.03;;;28.20;;
74180;SDS011;62544;50.826;14.354;2023-02-15T12:40:11;53.03;;;28.20;;
74180;SDS011;62544;50.826;14.354;2023-02-15T12:44:18;53.03;;;28.20;;
74180;SDS011;62544;50.826;14.354;2023-02-15T12:48:33;53.03;;;28.20;;
74180;SDS011;62544;50.826;14.354;2023-02-15T12:52:50;56.09;;;28.99;;
74180;SDS011;62544;50.826;14.354;2023-02-15T13:01:22;56.09;;;28.99;;
74180;SDS011;62544;50.826;14.354;2023-02-15T13:05:38;56.09;;;28.99;;
74180;SDS011;62544;50.826;14.354;2023-02-15T13:09:53;56.09;;;28.99;;
74180;SDS011;62544;50.826;14.354;2023-02-15T13:18:29;56.09;;;28.99;;
74180;SDS011;62544;50.826;14.354;2023-02-15T13:22:43;56.09;;;28.99;;
74180;SDS011;62544;50.826;14.354;2023-02-15T13:26:57;56.09;;;28.99;;
74180;SDS011;62544;50.826;14.354;2023-02-15T13:31:14;56.09;;;28.99;;
74180;SDS011;62544;50.826;14.354;2023-02-15T13:35:34;56.09;;;28.99;;
74180;SDS011;62544;50.826;14.354;2023-02-15T13:39:56;56.09;;;28.99;;
74180;SDS011;62544;50.826;14.354;2023-02-15T13:52:34;56.10;;;29.79;;
74180;SDS011;62544;50.826;14.354;2023-02-15T14:01:08;56.10;;;29.79;;
74180;SDS011;62544;50.826;14.354;2023-02-15T14:09:50;56.10;;;29.79;;
74180;SDS011;62544;50.826;14.354;2023-02-15T14:18:15;56.10;;;29.79;;
74180;SDS011;62544;50.826;14.354;2023-02-15T14:22:39;55.40;;;28.42;;
74180;SDS011;62544;50.826;14.354;2023-02-15T14:26:51;55.40;;;28.42;;
74180;SDS011;62544;50.826;14.354;2023-02-15T14:30:57;55.40;;;28.42;;
74180;SDS011;62544;50.826;14.354;2023-02-15T14:35:15;55.40;;;28.42;;
74180;SDS011;62544;50.826;14.354;2023-02-15T14:39:36;55.40;;;28.42;;
74180;SDS011;62544;50.826;14.354;2023-02-15T14:48:03;52.83;;;25.43;;
74180;SDS011;62544;50.826;14.354;2023-02-15T14:52:17;52.83;;;25.43;;
74180;SDS011;62544;50.826;14.354;2023-02-15T14:56:33;52.83;;;25.43;;
74180;SDS011;62544;50.826;14.354;2023-02-15T15:00:49;47.62;;;23.39;;
74180;SDS011;62544;50.826;14.354;2023-02-15T15:05:24;47.62;;;23.39;;
74180;SDS011;62544;50.826;14.354;2023-02-15T15:09:27;47.62;;;23.39;;
74180;SDS011;62544;50.826;14.354;2023-02-15T15:13:38;53.09;;;25.44;;
74180;SDS011;62544;50.826;14.354;2023-02-15T15:17:57;53.09;;;25.44;;
74180;SDS011;62544;50.826;14.354;2023-02-15T15:22:19;52.51;;;25.89;;
74180;SDS011;62544;50.826;14.354;2023-02-15T15:26:26;52.51;;;25.89;;
74180;SDS011;62544;50.826;14.354;2023-02-15T15:43:34;52.46;;;25.56;;
74180;SDS011;62544;50.826;14.354;2023-02-15T15:47:49;52.46;;;25.56;;
74180;SDS011;62544;50.826;14.354;2023-02-15T15:52:02;50.05;;;25.25;;
74180;SDS011;62544;50.826;14.354;2023-02-15T15:56:18;50.05;;;25.25;;
74180;SDS011;62544;50.826;14.354;2023-02-15T16:04:49;53.54;;;26.14;;
74180;SDS011;62544;50.826;14.354;2023-02-15T16:09:12;53.54;;;26.14;;
74180;SDS011;62544;50.826;14.354;2023-02-15T16:13:21;54.99;;;25.32;;
74180;SDS011;62544;50.826;14.354;2023-02-15T16:17:37;54.99;;;25.32;;
74180;SDS011;62544;50.826;14.354;2023-02-15T16:21:53;50.97;;;24.94;;
74180;SDS011;62544;50.826;14.354;2023-02-15T16:30:29;50.97;;;24.94;;
74180;SDS011;62544;50.826;14.354;2023-02-15T16:34:51;54.07;;;26.26;;
74180;SDS011;62544;50.826;14.354;2023-02-15T16:43:15;57.19;;;26.49;;
74180;SDS011;62544;50.826;14.354;2023-02-15T16:47:30;57.19;;;26.49;;
74180;SDS011;62544;50.826;14.354;2023-02-15T16:51:45;47.83;;;22.72;;
74180;SDS011;62544;50.826;14.354;2023-02-15T16:56:02;47.83;;;22.72;;
74180;SDS011;62544;50.826;14.354;2023-02-15T17:00:24;47.83;;;22.72;;
74180;SDS011;62544;50.826;14.354;2023-02-15T17:04:33;50.34;;;23.33;;
74180;SDS011;62544;50.826;14.354;2023-02-15T17:08:49;50.34;;;23.33;;
74180;SDS011;62544;50.826;14.354;2023-02-15T17:13:11;58.31;;;26.14;;
74180;SDS011;62544;50.826;14.354;2023-02-15T17:17:21;58.31;;;26.14;;
74180;SDS011;62544;50.826;14.354;2023-02-15T17:21:40;54.46;;;25.33;;
74180;SDS011;62544;50.826;14.354;2023-02-15T17:25:53;54.46;;;25.33;;
74180;SDS011;62544;50.826;14.354;2023-02-15T17:30:17;54.46;;;25.33;;
74180;SDS011;62544;50.826;14.354;2023-02-15T17:38:59;52.92;;;25.07;;
74180;SDS011;62544;50.826;14.354;2023-02-15T17:42:57;58.51;;;25.55;;
74180;SDS011;62544;50.826;14.354;2023-02-15T17:47:17;58.51;;;25.55;;
74180;SDS011;62544;50.826;14.354;2023-02-15T17:51:29;52.28;;;22.96;;
74180;SDS011;62544;50.826;14.354;2023-02-15T17:55:46;52.28;;;22.96;;
74180;SDS011;62544;50.826;14.354;2023-02-15T18:00:01;52.28;;;22.96;;
74180;SDS011;62544;50.826;14.354;2023-02-15T18:04:17;54.27;;;23.73;;
74180;SDS011;62544;50.826;14.354;2023-02-15T18:08:33;54.27;;;23.73;;
74180;SDS011;62544;50.826;14.354;2023-02-15T18:12:49;56.84;;;24.86;;
74180;SDS011;62544;50.826;14.354;2023-02-15T18:17:05;56.84;;;24.86;;
74180;SDS011;62544;50.826;14.354;2023-02-15T18:21:22;68.48;;;27.90;;
74180;SDS011;62544;50.826;14.354;2023-02-15T18:25:37;68.48;;;27.90;;
74180;SDS011;62544;50.826;14.354;2023-02-15T18:29:53;68.48;;;27.90;;
74180;SDS011;62544;50.826;14.354;2023-02-15T18:34:15;88.51;;;32.48;;
74180;SDS011;62544;50.826;14.354;2023-02-15T18:38:25;88.51;;;32.48;;
74180;SDS011;62544;50.826;14.354;2023-02-15T18:42:41;59.09;;;25.57;;
74180;SDS011;62544;50.826;14.354;2023-02-15T18:46:57;59.09;;;25.57;;
74180;SDS011;62544;50.826;14.354;2023-02-15T18:51:15;53.86;;;24.22;;
74180;SDS011;62544;50.826;14.354;2023-02-15T18:55:29;53.86;;;24.22;;
74180;SDS011;62544;50.826;14.354;2023-02-15T18:59:45;53.86;;;24.22;;
74180;SDS011;62544;50.826;14.354;2023-02-15T19:04:01;53.80;;;22.56;;
74180;SDS011;62544;50.826;14.354;2023-02-15T19:08:18;53.80;;;22.56;;
74180;SDS011;62544;50.826;14.354;2023-02-15T19:12:33;49.37;;;21.50;;
74180;SDS011;62544;50.826;14.354;2023-02-15T19:16:49;49.37;;;21.50;;
74180;SDS011;62544;50.826;14.354;2023-02-15T19:21:05;53.13;;;22.81;;
74180;SDS011;62544;50.826;14.354;2023-02-15T19:25:22;53.13;;;22.81;;
74180;SDS011;62544;50.826;14.354;2023-02-15T19:29:37;53.13;;;22.81;;
74180;SDS011;62544;50.826;14.354;2023-02-15T19:33:56;51.82;;;22.58;;
74180;SDS011;62544;50.826;14.354;2023-02-15T19:38:10;51.82;;;22.58;;
74180;SDS011;62544;50.826;14.354;2023-02-15T19:42:25;51.53;;;22.54;;
74180;SDS011;62544;50.826;14.354;2023-02-15T19:46:41;51.53;;;22.54;;
74180;SDS011;62544;50.826;14.354;2023-02-15T19:50:57;53.02;;;22.95;;
74180;SDS011;62544;50.826;14.354;2023-02-15T19:55:20;53.02;;;22.95;;
74180;SDS011;62544;50.826;14.354;2023-02-15T19:59:32;53.02;;;22.95;;
74180;SDS011;62544;50.826;14.354;2023-02-15T20:03:45;50.53;;;22.30;;
74180;SDS011;62544;50.826;14.354;2023-02-15T20:08:01;50.53;;;22.30;;
74180;SDS011;62544;50.826;14.354;2023-02-15T20:12:26;48.99;;;21.83;;
74180;SDS011;62544;50.826;14.354;2023-02-15T20:16:33;48.99;;;21.83;;
74180;SDS011;62544;50.826;14.354;2023-02-15T20:20:49;49.37;;;21.46;;
74180;SDS011;62544;50.826;14.354;2023-02-15T20:25:05;49.37;;;21.46;;
74180;SDS011;62544;50.826;14.354;2023-02-15T20:29:21;49.37;;;21.46;;
74180;SDS011;62544;50.826;14.354;2023-02-15T20:33:40;46.93;;;20.79;;
74180;SDS011;62544;50.826;14.354;2023-02-15T20:37:54;46.93;;;20.79;;
74180;SDS011;62544;50.826;14.354;2023-02-15T20:42:11;45.69;;;20.62;;
74180;SDS011;62544;50.826;14.354;2023-02-15T20:46:25;45.69;;;20.62;;
74180;SDS011;62544;50.826;14.354;2023-02-15T20:50:41;40.50;;;19.52;;
74180;SDS011;62544;50.826;14.354;2023-02-15T20:54:57;40.50;;;19.52;;
74180;SDS011;62544;50.826;14.354;2023-02-15T20:59:20;40.50;;;19.52;;
74180;SDS011;62544;50.826;14.354;2023-02-15T21:03:29;41.82;;;20.19;;
74180;SDS011;62544;50.826;14.354;2023-02-15T21:07:45;41.82;;;20.19;;
74180;SDS011;62544;50.826;14.354;2023-02-15T21:12:01;40.39;;;19.63;;
74180;SDS011;62544;50.826;14.354;2023-02-15T21:16:17;40.39;;;19.63;;
74180;SDS011;62544;50.826;14.354;2023-02-15T21:20:33;40.39;;;19.63;;
74180;SDS011;62544;50.826;14.354;2023-02-15T21:24:49;46.29;;;22.14;;
74180;SDS011;62544;50.826;14.354;2023-02-15T21:29:05;46.29;;;22.14;;
74180;SDS011;62544;50.826;14.354;2023-02-15T21:33:21;42.68;;;20.03;;
74180;SDS011;62544;50.826;14.354;2023-02-15T21:37:37;42.68;;;20.03;;
74180;SDS011;62544;50.826;14.354;2023-02-15T21:41:53;46.87;;;22.13;;
74180;SDS011;62544;50.826;14.354;2023-02-15T21:46:13;46.87;;;22.13;;
74180;SDS011;62544;50.826;14.354;2023-02-15T21:50:25;46.87;;;22.13;;
74180;SDS011;62544;50.826;14.354;2023-02-15T21:54:41;43.64;;;20.37;;
74180;SDS011;62544;50.826;14.354;2023-02-15T21:58:57;43.64;;;20.37;;
74180;SDS011;62544;50.826;14.354;2023-02-15T22:03:13;39.04;;;18.35;;
74180;SDS011;62544;50.826;14.354;2023-02-15T22:07:29;39.04;;;18.35;;
74180;SDS011;62544;50.826;14.354;2023-02-15T22:11:45;37.57;;;17.54;;
74180;SDS011;62544;50.826;14.354;2023-02-15T22:16:01;37.57;;;17.54;;
74180;SDS011;62544;50.826;14.354;2023-02-15T22:20:18;37.57;;;17.54;;
74180;SDS011;62544;50.826;14.354;2023-02-15T22:24:33;40.70;;;18.90;;
74180;SDS011;62544;50.826;14.354;2023-02-15T22:28:49;40.70;;;18.90;;
74180;SDS011;62544;50.826;14.354;2023-02-15T22:33:05;39.45;;;18.54;;
74180;SDS011;62544;50.826;14.354;2023-02-15T22:37:21;39.45;;;18.54;;
74180;SDS011;62544;50.826;14.354;2023-02-15T22:41:37;40.56;;;18.24;;
74180;SDS011;62544;50.826;14.354;2023-02-15T22:45:54;40.56;;;18.24;;
74180;SDS011;62544;50.826;14.354;2023-02-15T22:50:19;40.56;;;18.24;;
74180;SDS011;62544;50.826;14.354;2023-02-15T22:54:25;39.28;;;18.57;;
74180;SDS011;62544;50.826;14.354;2023-02-15T22:58:41;39.28;;;18.57;;
74180;SDS011;62544;50.826;14.354;2023-02-15T23:02:57;37.48;;;17.17;;
74180;SDS011;62544;50.826;14.354;2023-02-15T23:07:14;37.48;;;17.17;;
74180;SDS011;62544;50.826;14.354;2023-02-15T23:11:29;38.55;;;17.66;;
74180;SDS011;62544;50.826;14.354;2023-02-15T23:15:45;38.55;;;17.66;;
74180;SDS011;62544;50.826;14.354;2023-02-15T23:20:01;38.55;;;17.66;;
74180;SDS011;62544;50.826;14.354;2023-02-15T23:24:21;40.95;;;18.23;;
74180;SDS011;62544;50.826;14.354;2023-02-15T23:28:34;40.95;;;18.23;;
74180;SDS011;62544;50.826;14.354;2023-02-15T23:32:49;36.47;;;16.69;;
74180;SDS011;62544;50.826;14.354;2023-02-15T23:37:05;36.47;;;16.69;;
74180;SDS011;62544;50.826;14.354;2023-02-15T23:41:22;35.81;;;15.88;;
74180;SDS011;62544;50.826;14.354;2023-02-15T23:45:37;35.81;;;15.88;;
74180;SDS011;62544;50.826;14.354;2023-02-15T23:49:53;35.81;;;15.88;;
74180;SDS011;62544;50.826;14.354;2023-02-15T23:54:09;37.08;;;16.73;;
74180;SDS011;62544;50.826;14.354;2023-02-15T23:58:32;37.08;;;16.73;;
